sensor_id;sensor_type;location;lat;lon;timestamp;P1;durP1;ratioP1;P2;durP2;ratioP2
20038;SDS011;21737;42.868;25.320;2024-03-23T00:55:13;5.15;;;2.50;;
20038;SDS011;21737;42.868;25.320;2024-03-23T00:57:39;5.85;;;2.58;;
20038;SDS011;21737;42.868;25.320;2024-03-23T01:00:05;5.90;;;2.78;;
20038;SDS011;21737;42.868;25.320;2024-03-23T01:02:34;6.25;;;2.20;;
20038;SDS011;21737;42.868;25.320;2024-03-23T01:05:00;4.78;;;2.08;;
20038;SDS011;21737;42.868;25.320;2024-03-23T01:07:25;7.80;;;2.35;;
20038;SDS011;21737;42.868;25.320;2024-03-23T01:09:51;5.00;;;1.90;;
20038;SDS011;21737;42.868;25.320;2024-03-23T01:12:18;5.60;;;2.40;;
20038;SDS011;21737;42.868;25.320;2024-03-23T01:14:46;6.68;;;2.72;;
20038;SDS011;21737;42.868;25.320;2024-03-23T01:17:12;6.22;;;2.50;;
20038;SDS011;21737;42.868;25.320;2024-03-23T01:19:38;5.15;;;1.75;;
20038;SDS011;21737;42.868;25.320;2024-03-23T01:22:07;3.83;;;1.98;;
20038;SDS011;21737;42.868;25.320;2024-03-23T01:24:33;4.82;;;2.05;;
20038;SDS011;21737;42.868;25.320;2024-03-23T01:26:59;5.53;;;1.85;;
20038;SDS011;21737;42.868;25.320;2024-03-23T01:29:26;3.63;;;1.55;;
20038;SDS011;21737;42.868;25.320;2024-03-23T01:31:52;5.05;;;1.92;;
20038;SDS011;21737;42.868;25.320;2024-03-23T01:34:18;5.07;;;2.38;;
20038;SDS011;21737;42.868;25.320;2024-03-23T01:36:45;5.72;;;2.17;;
20038;SDS011;21737;42.868;25.320;2024-03-23T01:39:12;4.05;;;1.77;;
20038;SDS011;21737;42.868;25.320;2024-03-23T01:41:39;2.47;;;1.13;;
20038;SDS011;21737;42.868;25.320;2024-03-23T01:44:07;1.50;;;1.10;;
20038;SDS011;21737;42.868;25.320;2024-03-23T01:46:34;3.65;;;1.90;;
20038;SDS011;21737;42.868;25.320;2024-03-23T01:49:04;2.72;;;1.35;;
20038;SDS011;21737;42.868;25.320;2024-03-23T01:51:36;3.00;;;1.48;;
20038;SDS011;21737;42.868;25.320;2024-03-23T01:54:03;5.75;;;2.15;;
20038;SDS011;21737;42.868;25.320;2024-03-23T01:56:30;4.30;;;1.63;;
20038;SDS011;21737;42.868;25.320;2024-03-23T01:59:01;4.75;;;1.77;;
20038;SDS011;21737;42.868;25.320;2024-03-23T02:01:32;3.95;;;1.73;;
20038;SDS011;21737;42.868;25.320;2024-03-23T02:03:58;5.45;;;2.10;;
20038;SDS011;21737;42.868;25.320;2024-03-23T02:06:25;4.95;;;1.15;;
20038;SDS011;21737;42.868;25.320;2024-03-23T02:08:51;7.10;;;2.10;;
20038;SDS011;21737;42.868;25.320;2024-03-23T02:11:17;2.08;;;1.13;;
20038;SDS011;21737;42.868;25.320;2024-03-23T02:13:43;7.80;;;2.63;;
20038;SDS011;21737;42.868;25.320;2024-03-23T02:16:09;5.25;;;1.77;;
20038;SDS011;21737;42.868;25.320;2024-03-23T02:18:35;3.42;;;1.58;;
20038;SDS011;21737;42.868;25.320;2024-03-23T02:21:02;3.47;;;1.85;;
20038;SDS011;21737;42.868;25.320;2024-03-23T02:23:30;4.00;;;2.15;;
20038;SDS011;21737;42.868;25.320;2024-03-23T02:25:56;1.90;;;1.08;;
20038;SDS011;21737;42.868;25.320;2024-03-23T02:28:27;4.57;;;2.28;;
20038;SDS011;21737;42.868;25.320;2024-03-23T02:30:53;6.20;;;1.73;;
20038;SDS011;21737;42.868;25.320;2024-03-23T02:33:19;6.40;;;1.90;;
20038;SDS011;21737;42.868;25.320;2024-03-23T02:35:45;3.85;;;2.10;;
20038;SDS011;21737;42.868;25.320;2024-03-23T02:38:12;3.88;;;2.05;;
20038;SDS011;21737;42.868;25.320;2024-03-23T02:40:38;3.97;;;1.50;;
20038;SDS011;21737;42.868;25.320;2024-03-23T02:43:04;4.13;;;1.88;;
20038;SDS011;21737;42.868;25.320;2024-03-23T02:45:30;4.43;;;2.38;;
20038;SDS011;21737;42.868;25.320;2024-03-23T02:47:56;5.43;;;2.22;;
20038;SDS011;21737;42.868;25.320;2024-03-23T02:50:22;6.00;;;2.03;;
20038;SDS011;21737;42.868;25.320;2024-03-23T02:52:48;6.35;;;2.50;;
20038;SDS011;21737;42.868;25.320;2024-03-23T02:55:15;5.35;;;2.28;;
20038;SDS011;21737;42.868;25.320;2024-03-23T02:57:43;5.78;;;2.33;;
20038;SDS011;21737;42.868;25.320;2024-03-23T03:00:10;5.38;;;1.83;;
20038;SDS011;21737;42.868;25.320;2024-03-23T03:02:36;6.47;;;2.38;;
20038;SDS011;21737;42.868;25.320;2024-03-23T03:05:04;5.20;;;2.33;;
20038;SDS011;21737;42.868;25.320;2024-03-23T03:07:31;5.07;;;1.80;;
20038;SDS011;21737;42.868;25.320;2024-03-23T03:09:59;4.78;;;2.38;;
20038;SDS011;21737;42.868;25.320;2024-03-23T03:12:25;3.58;;;1.52;;
20038;SDS011;21737;42.868;25.320;2024-03-23T03:17:22;2.88;;;1.45;;
20038;SDS011;21737;42.868;25.320;2024-03-23T03:19:49;4.43;;;1.75;;
20038;SDS011;21737;42.868;25.320;2024-03-23T03:22:22;4.15;;;1.70;;
20038;SDS011;21737;42.868;25.320;2024-03-23T03:24:50;4.00;;;1.70;;
20038;SDS011;21737;42.868;25.320;2024-03-23T03:27:16;4.32;;;2.08;;
20038;SDS011;21737;42.868;25.320;2024-03-23T03:29:43;3.10;;;1.40;;
20038;SDS011;21737;42.868;25.320;2024-03-23T03:32:09;3.92;;;1.42;;
20038;SDS011;21737;42.868;25.320;2024-03-23T03:34:35;7.18;;;2.47;;
20038;SDS011;21737;42.868;25.320;2024-03-23T03:37:01;5.88;;;2.13;;
20038;SDS011;21737;42.868;25.320;2024-03-23T03:39:33;2.00;;;0.98;;
20038;SDS011;21737;42.868;25.320;2024-03-23T03:41:59;4.30;;;1.80;;
20038;SDS011;21737;42.868;25.320;2024-03-23T03:44:27;4.38;;;2.50;;
20038;SDS011;21737;42.868;25.320;2024-03-23T03:47:00;4.95;;;1.70;;
20038;SDS011;21737;42.868;25.320;2024-03-23T03:49:26;1.92;;;1.25;;
20038;SDS011;21737;42.868;25.320;2024-03-23T03:51:53;4.18;;;1.42;;
20038;SDS011;21737;42.868;25.320;2024-03-23T03:54:20;3.40;;;1.80;;
20038;SDS011;21737;42.868;25.320;2024-03-23T03:56:46;2.60;;;1.45;;
20038;SDS011;21737;42.868;25.320;2024-03-23T03:59:26;3.25;;;1.55;;
20038;SDS011;21737;42.868;25.320;2024-03-23T04:01:52;3.90;;;1.70;;
20038;SDS011;21737;42.868;25.320;2024-03-23T04:04:19;2.85;;;1.30;;
20038;SDS011;21737;42.868;25.320;2024-03-23T04:06:46;3.03;;;1.15;;
20038;SDS011;21737;42.868;25.320;2024-03-23T04:09:12;4.10;;;1.70;;
20038;SDS011;21737;42.868;25.320;2024-03-23T04:11:45;4.38;;;1.45;;
20038;SDS011;21737;42.868;25.320;2024-03-23T04:14:13;5.22;;;2.22;;
20038;SDS011;21737;42.868;25.320;2024-03-23T04:16:41;4.53;;;1.98;;
20038;SDS011;21737;42.868;25.320;2024-03-23T04:19:07;2.30;;;1.17;;
20038;SDS011;21737;42.868;25.320;2024-03-23T04:21:33;3.47;;;2.15;;
20038;SDS011;21737;42.868;25.320;2024-03-23T04:24:00;7.10;;;2.35;;
20038;SDS011;21737;42.868;25.320;2024-03-23T04:26:26;4.35;;;1.83;;
20038;SDS011;21737;42.868;25.320;2024-03-23T04:28:53;2.78;;;1.55;;
20038;SDS011;21737;42.868;25.320;2024-03-23T04:31:21;4.18;;;2.05;;
20038;SDS011;21737;42.868;25.320;2024-03-23T04:33:48;5.38;;;1.90;;
20038;SDS011;21737;42.868;25.320;2024-03-23T04:36:14;3.65;;;1.60;;
20038;SDS011;21737;42.868;25.320;2024-03-23T04:38:41;3.10;;;1.50;;
20038;SDS011;21737;42.868;25.320;2024-03-23T04:41:07;3.05;;;1.13;;
20038;SDS011;21737;42.868;25.320;2024-03-23T04:43:34;4.10;;;1.23;;
20038;SDS011;21737;42.868;25.320;2024-03-23T04:46:00;3.25;;;1.58;;
20038;SDS011;21737;42.868;25.320;2024-03-23T04:48:33;3.97;;;1.92;;
20038;SDS011;21737;42.868;25.320;2024-03-23T04:50:59;7.03;;;1.58;;
20038;SDS011;21737;42.868;25.320;2024-03-23T04:53:26;2.70;;;1.63;;
20038;SDS011;21737;42.868;25.320;2024-03-23T04:55:56;5.88;;;2.05;;
20038;SDS011;21737;42.868;25.320;2024-03-23T04:58:22;2.58;;;1.55;;
20038;SDS011;21737;42.868;25.320;2024-03-23T05:00:53;3.80;;;2.08;;
20038;SDS011;21737;42.868;25.320;2024-03-23T05:03:25;4.20;;;1.88;;
20038;SDS011;21737;42.868;25.320;2024-03-23T05:05:51;3.67;;;1.90;;
20038;SDS011;21737;42.868;25.320;2024-03-23T05:08:17;3.28;;;1.67;;
20038;SDS011;21737;42.868;25.320;2024-03-23T05:10:43;4.45;;;2.38;;
20038;SDS011;21737;42.868;25.320;2024-03-23T05:13:09;8.05;;;3.35;;
20038;SDS011;21737;42.868;25.320;2024-03-23T05:15:35;3.55;;;1.85;;
20038;SDS011;21737;42.868;25.320;2024-03-23T05:18:01;7.63;;;2.67;;
20038;SDS011;21737;42.868;25.320;2024-03-23T05:20:27;3.08;;;1.52;;
20038;SDS011;21737;42.868;25.320;2024-03-23T05:22:55;4.20;;;1.80;;
20038;SDS011;21737;42.868;25.320;2024-03-23T05:25:20;2.85;;;1.60;;
20038;SDS011;21737;42.868;25.320;2024-03-23T05:27:48;3.30;;;2.00;;
20038;SDS011;21737;42.868;25.320;2024-03-23T05:30:14;3.78;;;1.73;;
20038;SDS011;21737;42.868;25.320;2024-03-23T05:32:40;5.30;;;1.73;;
20038;SDS011;21737;42.868;25.320;2024-03-23T05:35:09;5.97;;;2.28;;
20038;SDS011;21737;42.868;25.320;2024-03-23T05:37:35;7.03;;;2.17;;
20038;SDS011;21737;42.868;25.320;2024-03-23T05:40:02;3.33;;;1.52;;
20038;SDS011;21737;42.868;25.320;2024-03-23T05:42:30;6.53;;;2.47;;
20038;SDS011;21737;42.868;25.320;2024-03-23T05:44:56;3.47;;;2.08;;
20038;SDS011;21737;42.868;25.320;2024-03-23T05:47:22;8.52;;;2.90;;
20038;SDS011;21737;42.868;25.320;2024-03-23T05:49:49;5.90;;;2.25;;
20038;SDS011;21737;42.868;25.320;2024-03-23T05:52:17;8.20;;;2.28;;
20038;SDS011;21737;42.868;25.320;2024-03-23T05:54:49;6.20;;;2.28;;
20038;SDS011;21737;42.868;25.320;2024-03-23T05:57:15;6.18;;;2.72;;
20038;SDS011;21737;42.868;25.320;2024-03-23T05:59:41;4.60;;;2.00;;
20038;SDS011;21737;42.868;25.320;2024-03-23T06:02:07;4.07;;;1.90;;
20038;SDS011;21737;42.868;25.320;2024-03-23T06:04:37;3.92;;;1.70;;
20038;SDS011;21737;42.868;25.320;2024-03-23T06:07:03;7.78;;;2.83;;
20038;SDS011;21737;42.868;25.320;2024-03-23T06:09:31;3.70;;;1.88;;
20038;SDS011;21737;42.868;25.320;2024-03-23T06:11:58;5.22;;;2.58;;
20038;SDS011;21737;42.868;25.320;2024-03-23T06:14:24;8.68;;;3.33;;
20038;SDS011;21737;42.868;25.320;2024-03-23T06:16:51;12.10;;;3.75;;
20038;SDS011;21737;42.868;25.320;2024-03-23T06:19:17;4.72;;;3.00;;
20038;SDS011;21737;42.868;25.320;2024-03-23T06:21:43;5.00;;;2.17;;
20038;SDS011;21737;42.868;25.320;2024-03-23T06:24:10;3.28;;;1.73;;
20038;SDS011;21737;42.868;25.320;2024-03-23T06:26:37;4.97;;;2.42;;
20038;SDS011;21737;42.868;25.320;2024-03-23T06:29:03;3.22;;;1.88;;
20038;SDS011;21737;42.868;25.320;2024-03-23T06:31:31;5.05;;;2.75;;
20038;SDS011;21737;42.868;25.320;2024-03-23T06:33:58;3.35;;;1.55;;
20038;SDS011;21737;42.868;25.320;2024-03-23T06:36:24;8.15;;;2.97;;
20038;SDS011;21737;42.868;25.320;2024-03-23T06:38:50;4.72;;;2.10;;
20038;SDS011;21737;42.868;25.320;2024-03-23T06:41:19;4.63;;;2.60;;
20038;SDS011;21737;42.868;25.320;2024-03-23T06:46:13;6.03;;;3.25;;
20038;SDS011;21737;42.868;25.320;2024-03-23T06:48:39;5.95;;;2.70;;
20038;SDS011;21737;42.868;25.320;2024-03-23T06:51:06;4.10;;;2.25;;
20038;SDS011;21737;42.868;25.320;2024-03-23T06:53:33;7.03;;;3.45;;
20038;SDS011;21737;42.868;25.320;2024-03-23T06:56:01;6.13;;;3.13;;
20038;SDS011;21737;42.868;25.320;2024-03-23T06:58:27;4.47;;;2.55;;
20038;SDS011;21737;42.868;25.320;2024-03-23T07:00:53;6.65;;;3.08;;
20038;SDS011;21737;42.868;25.320;2024-03-23T07:03:20;6.13;;;2.80;;
20038;SDS011;21737;42.868;25.320;2024-03-23T07:05:47;5.57;;;3.05;;
20038;SDS011;21737;42.868;25.320;2024-03-23T07:08:13;5.45;;;2.92;;
20038;SDS011;21737;42.868;25.320;2024-03-23T07:10:44;4.55;;;2.80;;
20038;SDS011;21737;42.868;25.320;2024-03-23T07:13:11;6.70;;;3.10;;
20038;SDS011;21737;42.868;25.320;2024-03-23T07:15:37;7.00;;;4.13;;
20038;SDS011;21737;42.868;25.320;2024-03-23T07:18:03;7.00;;;3.53;;
20038;SDS011;21737;42.868;25.320;2024-03-23T07:20:30;5.80;;;3.33;;
20038;SDS011;21737;42.868;25.320;2024-03-23T07:22:57;9.10;;;4.18;;
20038;SDS011;21737;42.868;25.320;2024-03-23T07:25:23;7.25;;;3.38;;
20038;SDS011;21737;42.868;25.320;2024-03-23T07:27:50;15.38;;;10.07;;
20038;SDS011;21737;42.868;25.320;2024-03-23T07:30:18;11.05;;;7.82;;
20038;SDS011;21737;42.868;25.320;2024-03-23T07:35:29;6.50;;;4.28;;
20038;SDS011;21737;42.868;25.320;2024-03-23T07:37:57;10.50;;;4.90;;
20038;SDS011;21737;42.868;25.320;2024-03-23T07:40:25;9.50;;;6.80;;
20038;SDS011;21737;42.868;25.320;2024-03-23T07:42:50;6.40;;;4.00;;
20038;SDS011;21737;42.868;25.320;2024-03-23T07:45:16;6.50;;;4.20;;
20038;SDS011;21737;42.868;25.320;2024-03-23T07:47:43;6.63;;;3.90;;
20038;SDS011;21737;42.868;25.320;2024-03-23T07:50:09;6.68;;;3.67;;
20038;SDS011;21737;42.868;25.320;2024-03-23T07:52:37;4.45;;;2.50;;
20038;SDS011;21737;42.868;25.320;2024-03-23T07:55:04;5.97;;;3.10;;
20038;SDS011;21737;42.868;25.320;2024-03-23T07:57:31;4.72;;;2.50;;
20038;SDS011;21737;42.868;25.320;2024-03-23T07:59:56;3.33;;;2.05;;
20038;SDS011;21737;42.868;25.320;2024-03-23T08:02:23;4.72;;;2.45;;
20038;SDS011;21737;42.868;25.320;2024-03-23T08:04:48;3.65;;;1.90;;
20038;SDS011;21737;42.868;25.320;2024-03-23T08:07:14;3.65;;;1.80;;
20038;SDS011;21737;42.868;25.320;2024-03-23T08:09:40;3.30;;;1.50;;
20038;SDS011;21737;42.868;25.320;2024-03-23T08:12:14;3.85;;;1.70;;
20038;SDS011;21737;42.868;25.320;2024-03-23T08:14:40;2.53;;;1.42;;
20038;SDS011;21737;42.868;25.320;2024-03-23T08:17:07;2.75;;;1.20;;
20038;SDS011;21737;42.868;25.320;2024-03-23T08:19:33;1.55;;;0.90;;
20038;SDS011;21737;42.868;25.320;2024-03-23T08:22:00;5.05;;;2.20;;
20038;SDS011;21737;42.868;25.320;2024-03-23T08:24:27;2.00;;;1.40;;
20038;SDS011;21737;42.868;25.320;2024-03-23T08:26:54;4.65;;;1.65;;
20038;SDS011;21737;42.868;25.320;2024-03-23T08:29:20;2.60;;;1.30;;
20038;SDS011;21737;42.868;25.320;2024-03-23T08:31:46;1.92;;;1.45;;
20038;SDS011;21737;42.868;25.320;2024-03-23T08:34:12;5.00;;;2.50;;
20038;SDS011;21737;42.868;25.320;2024-03-23T08:36:38;2.03;;;1.15;;
20038;SDS011;21737;42.868;25.320;2024-03-23T08:39:06;2.35;;;1.38;;
20038;SDS011;21737;42.868;25.320;2024-03-23T08:41:32;3.03;;;1.60;;
20038;SDS011;21737;42.868;25.320;2024-03-23T08:43:57;3.25;;;2.13;;
20038;SDS011;21737;42.868;25.320;2024-03-23T08:46:23;1.67;;;1.05;;
20038;SDS011;21737;42.868;25.320;2024-03-23T08:48:49;2.03;;;1.05;;
20038;SDS011;21737;42.868;25.320;2024-03-23T08:51:17;2.63;;;1.27;;
20038;SDS011;21737;42.868;25.320;2024-03-23T08:53:43;2.63;;;1.42;;
20038;SDS011;21737;42.868;25.320;2024-03-23T08:56:11;4.40;;;1.40;;
20038;SDS011;21737;42.868;25.320;2024-03-23T08:58:39;3.00;;;1.80;;
20038;SDS011;21737;42.868;25.320;2024-03-23T09:03:42;1.65;;;0.90;;
20038;SDS011;21737;42.868;25.320;2024-03-23T09:06:09;1.98;;;1.17;;
20038;SDS011;21737;42.868;25.320;2024-03-23T09:08:37;4.03;;;1.33;;
20038;SDS011;21737;42.868;25.320;2024-03-23T09:11:08;1.92;;;1.00;;
20038;SDS011;21737;42.868;25.320;2024-03-23T09:13:38;2.20;;;1.20;;
20038;SDS011;21737;42.868;25.320;2024-03-23T09:16:05;4.10;;;1.17;;
20038;SDS011;21737;42.868;25.320;2024-03-23T09:18:34;2.80;;;1.10;;
20038;SDS011;21737;42.868;25.320;2024-03-23T09:23:27;3.03;;;1.30;;
20038;SDS011;21737;42.868;25.320;2024-03-23T09:25:53;3.22;;;0.95;;
20038;SDS011;21737;42.868;25.320;2024-03-23T09:28:19;2.38;;;1.15;;
20038;SDS011;21737;42.868;25.320;2024-03-23T09:30:45;2.78;;;1.05;;
20038;SDS011;21737;42.868;25.320;2024-03-23T09:33:12;2.95;;;1.00;;
20038;SDS011;21737;42.868;25.320;2024-03-23T09:35:43;4.05;;;1.63;;
20038;SDS011;21737;42.868;25.320;2024-03-23T09:38:12;2.92;;;1.40;;
20038;SDS011;21737;42.868;25.320;2024-03-23T09:40:43;3.00;;;1.50;;
20038;SDS011;21737;42.868;25.320;2024-03-23T09:43:10;2.53;;;1.25;;
20038;SDS011;21737;42.868;25.320;2024-03-23T09:45:38;3.97;;;1.17;;
20038;SDS011;21737;42.868;25.320;2024-03-23T09:48:12;2.42;;;1.38;;
20038;SDS011;21737;42.868;25.320;2024-03-23T09:50:39;2.47;;;1.20;;
20038;SDS011;21737;42.868;25.320;2024-03-23T09:53:14;2.45;;;1.25;;
20038;SDS011;21737;42.868;25.320;2024-03-23T09:55:41;2.00;;;1.10;;
20038;SDS011;21737;42.868;25.320;2024-03-23T09:58:13;4.43;;;1.85;;
20038;SDS011;21737;42.868;25.320;2024-03-23T10:00:43;2.63;;;0.90;;
20038;SDS011;21737;42.868;25.320;2024-03-23T10:03:10;3.70;;;2.28;;
20038;SDS011;21737;42.868;25.320;2024-03-23T10:05:37;2.25;;;0.88;;
20038;SDS011;21737;42.868;25.320;2024-03-23T10:08:21;3.33;;;1.33;;
20038;SDS011;21737;42.868;25.320;2024-03-23T10:10:48;3.35;;;1.00;;
20038;SDS011;21737;42.868;25.320;2024-03-23T10:13:25;1.90;;;1.10;;
20038;SDS011;21737;42.868;25.320;2024-03-23T10:16:00;1.83;;;1.10;;
20038;SDS011;21737;42.868;25.320;2024-03-23T10:18:26;3.80;;;1.13;;
20038;SDS011;21737;42.868;25.320;2024-03-23T10:21:07;3.13;;;1.30;;
20038;SDS011;21737;42.868;25.320;2024-03-23T10:23:37;2.10;;;0.88;;
20038;SDS011;21737;42.868;25.320;2024-03-23T10:26:20;2.72;;;1.48;;
20038;SDS011;21737;42.868;25.320;2024-03-23T10:28:54;3.72;;;1.00;;
20038;SDS011;21737;42.868;25.320;2024-03-23T10:31:20;3.35;;;1.20;;
20038;SDS011;21737;42.868;25.320;2024-03-23T10:33:48;3.70;;;1.73;;
20038;SDS011;21737;42.868;25.320;2024-03-23T10:36:17;2.53;;;1.10;;
20038;SDS011;21737;42.868;25.320;2024-03-23T10:41:12;4.97;;;1.08;;
20038;SDS011;21737;42.868;25.320;2024-03-23T10:43:38;3.83;;;1.30;;
20038;SDS011;21737;42.868;25.320;2024-03-23T10:46:04;3.35;;;1.40;;
20038;SDS011;21737;42.868;25.320;2024-03-23T10:48:31;3.00;;;1.20;;
20038;SDS011;21737;42.868;25.320;2024-03-23T10:50:59;4.18;;;1.30;;
20038;SDS011;21737;42.868;25.320;2024-03-23T10:53:26;2.70;;;1.58;;
20038;SDS011;21737;42.868;25.320;2024-03-23T10:55:57;2.38;;;1.23;;
20038;SDS011;21737;42.868;25.320;2024-03-23T10:58:42;3.15;;;1.00;;
20038;SDS011;21737;42.868;25.320;2024-03-23T11:01:14;3.28;;;1.30;;
20038;SDS011;21737;42.868;25.320;2024-03-23T11:03:45;2.53;;;1.10;;
20038;SDS011;21737;42.868;25.320;2024-03-23T11:06:33;2.65;;;1.00;;
20038;SDS011;21737;42.868;25.320;2024-03-23T11:12:48;3.88;;;1.23;;
20038;SDS011;21737;42.868;25.320;2024-03-23T11:17:37;4.45;;;1.23;;
20038;SDS011;21737;42.868;25.320;2024-03-23T11:20:06;2.78;;;1.40;;
20038;SDS011;21737;42.868;25.320;2024-03-23T11:25:15;2.58;;;1.20;;
20038;SDS011;21737;42.868;25.320;2024-03-23T11:27:48;2.75;;;1.00;;
20038;SDS011;21737;42.868;25.320;2024-03-23T11:32:52;2.17;;;1.00;;
20038;SDS011;21737;42.868;25.320;2024-03-23T11:38:10;3.05;;;1.17;;
20038;SDS011;21737;42.868;25.320;2024-03-23T11:43:10;2.83;;;1.30;;
20038;SDS011;21737;42.868;25.320;2024-03-23T11:45:39;2.10;;;1.10;;
20038;SDS011;21737;42.868;25.320;2024-03-23T11:48:09;2.83;;;1.20;;
20038;SDS011;21737;42.868;25.320;2024-03-23T11:50:42;3.05;;;1.20;;
20038;SDS011;21737;42.868;25.320;2024-03-23T11:58:08;5.05;;;1.17;;
20038;SDS011;21737;42.868;25.320;2024-03-23T12:00:34;2.78;;;1.27;;
20038;SDS011;21737;42.868;25.320;2024-03-23T12:03:10;2.50;;;1.20;;
20038;SDS011;21737;42.868;25.320;2024-03-23T12:05:37;3.03;;;1.20;;
20038;SDS011;21737;42.868;25.320;2024-03-23T12:08:19;1.70;;;1.00;;
20038;SDS011;21737;42.868;25.320;2024-03-23T12:10:51;3.78;;;1.05;;
20038;SDS011;21737;42.868;25.320;2024-03-23T12:13:19;2.08;;;0.88;;
20038;SDS011;21737;42.868;25.320;2024-03-23T12:15:47;2.13;;;1.08;;
20038;SDS011;21737;42.868;25.320;2024-03-23T12:18:15;3.13;;;1.50;;
20038;SDS011;21737;42.868;25.320;2024-03-23T12:20:43;4.00;;;1.45;;
20038;SDS011;21737;42.868;25.320;2024-03-23T12:23:10;4.13;;;1.50;;
20038;SDS011;21737;42.868;25.320;2024-03-23T12:25:38;3.13;;;1.13;;
20038;SDS011;21737;42.868;25.320;2024-03-23T12:28:05;3.50;;;1.45;;
20038;SDS011;21737;42.868;25.320;2024-03-23T12:30:32;2.60;;;1.30;;
20038;SDS011;21737;42.868;25.320;2024-03-23T12:33:00;2.30;;;1.38;;
20038;SDS011;21737;42.868;25.320;2024-03-23T12:35:28;2.55;;;1.15;;
20038;SDS011;21737;42.868;25.320;2024-03-23T12:37:53;2.97;;;1.10;;
20038;SDS011;21737;42.868;25.320;2024-03-23T12:40:19;2.30;;;1.15;;
20038;SDS011;21737;42.868;25.320;2024-03-23T12:42:46;2.92;;;1.13;;
20038;SDS011;21737;42.868;25.320;2024-03-23T12:45:13;2.90;;;1.35;;
20038;SDS011;21737;42.868;25.320;2024-03-23T12:47:40;2.70;;;1.80;;
20038;SDS011;21737;42.868;25.320;2024-03-23T12:50:07;1.80;;;0.95;;
20038;SDS011;21737;42.868;25.320;2024-03-23T12:52:35;2.25;;;1.45;;
20038;SDS011;21737;42.868;25.320;2024-03-23T12:55:02;2.80;;;1.40;;
20038;SDS011;21737;42.868;25.320;2024-03-23T12:57:30;3.20;;;1.20;;
20038;SDS011;21737;42.868;25.320;2024-03-23T12:59:56;1.73;;;0.98;;
20038;SDS011;21737;42.868;25.320;2024-03-23T13:02:22;2.30;;;1.20;;
20038;SDS011;21737;42.868;25.320;2024-03-23T13:04:53;3.15;;;1.10;;
20038;SDS011;21737;42.868;25.320;2024-03-23T13:09:45;3.05;;;1.45;;
20038;SDS011;21737;42.868;25.320;2024-03-23T13:14:40;3.28;;;1.38;;
20038;SDS011;21737;42.868;25.320;2024-03-23T13:17:07;2.58;;;1.40;;
20038;SDS011;21737;42.868;25.320;2024-03-23T13:19:34;5.05;;;1.80;;
20038;SDS011;21737;42.868;25.320;2024-03-23T13:22:00;3.75;;;1.90;;
20038;SDS011;21737;42.868;25.320;2024-03-23T13:24:27;2.70;;;1.23;;
20038;SDS011;21737;42.868;25.320;2024-03-23T13:26:54;2.78;;;1.23;;
20038;SDS011;21737;42.868;25.320;2024-03-23T13:29:21;2.08;;;1.02;;
20038;SDS011;21737;42.868;25.320;2024-03-23T13:31:51;4.05;;;2.03;;
20038;SDS011;21737;42.868;25.320;2024-03-23T13:34:17;3.42;;;1.30;;
20038;SDS011;21737;42.868;25.320;2024-03-23T13:36:44;2.35;;;0.90;;
20038;SDS011;21737;42.868;25.320;2024-03-23T13:39:11;3.03;;;1.00;;
20038;SDS011;21737;42.868;25.320;2024-03-23T13:41:38;2.88;;;1.00;;
20038;SDS011;21737;42.868;25.320;2024-03-23T13:44:09;3.67;;;1.30;;
20038;SDS011;21737;42.868;25.320;2024-03-23T13:46:36;5.47;;;1.30;;
20038;SDS011;21737;42.868;25.320;2024-03-23T13:49:04;3.47;;;1.33;;
20038;SDS011;21737;42.868;25.320;2024-03-23T13:51:31;4.32;;;1.60;;
20038;SDS011;21737;42.868;25.320;2024-03-23T13:53:58;2.25;;;0.90;;
20038;SDS011;21737;42.868;25.320;2024-03-23T13:56:27;3.83;;;1.20;;
20038;SDS011;21737;42.868;25.320;2024-03-23T13:58:57;2.13;;;1.35;;
20038;SDS011;21737;42.868;25.320;2024-03-23T14:01:23;3.10;;;1.20;;
20038;SDS011;21737;42.868;25.320;2024-03-23T14:03:49;2.67;;;1.38;;
20038;SDS011;21737;42.868;25.320;2024-03-23T14:06:16;3.90;;;1.38;;
20038;SDS011;21737;42.868;25.320;2024-03-23T14:08:44;3.47;;;1.40;;
20038;SDS011;21737;42.868;25.320;2024-03-23T14:11:10;2.85;;;1.50;;
20038;SDS011;21737;42.868;25.320;2024-03-23T14:13:38;3.67;;;1.00;;
20038;SDS011;21737;42.868;25.320;2024-03-23T14:16:04;3.83;;;1.50;;
20038;SDS011;21737;42.868;25.320;2024-03-23T14:18:30;4.28;;;2.17;;
20038;SDS011;21737;42.868;25.320;2024-03-23T14:20:57;2.90;;;1.30;;
20038;SDS011;21737;42.868;25.320;2024-03-23T14:23:28;3.05;;;1.55;;
20038;SDS011;21737;42.868;25.320;2024-03-23T14:25:56;3.60;;;1.10;;
20038;SDS011;21737;42.868;25.320;2024-03-23T14:28:24;3.40;;;1.50;;
20038;SDS011;21737;42.868;25.320;2024-03-23T14:30:51;2.28;;;1.00;;
20038;SDS011;21737;42.868;25.320;2024-03-23T14:33:18;3.50;;;1.45;;
20038;SDS011;21737;42.868;25.320;2024-03-23T14:35:59;3.35;;;1.65;;
20038;SDS011;21737;42.868;25.320;2024-03-23T14:38:25;2.08;;;0.95;;
20038;SDS011;21737;42.868;25.320;2024-03-23T14:40:52;3.13;;;1.40;;
20038;SDS011;21737;42.868;25.320;2024-03-23T14:43:19;3.45;;;1.40;;
20038;SDS011;21737;42.868;25.320;2024-03-23T14:48:44;3.05;;;1.50;;
20038;SDS011;21737;42.868;25.320;2024-03-23T14:51:11;4.07;;;1.50;;
20038;SDS011;21737;42.868;25.320;2024-03-23T14:53:38;3.85;;;1.60;;
20038;SDS011;21737;42.868;25.320;2024-03-23T14:56:10;2.40;;;1.38;;
20038;SDS011;21737;42.868;25.320;2024-03-23T14:58:37;3.58;;;1.40;;
20038;SDS011;21737;42.868;25.320;2024-03-23T15:01:07;2.92;;;1.08;;
20038;SDS011;21737;42.868;25.320;2024-03-23T15:03:39;2.80;;;1.15;;
20038;SDS011;21737;42.868;25.320;2024-03-23T15:06:13;2.75;;;1.20;;
20038;SDS011;21737;42.868;25.320;2024-03-23T15:08:41;3.92;;;1.48;;
20038;SDS011;21737;42.868;25.320;2024-03-23T15:13:36;2.42;;;1.40;;
20038;SDS011;21737;42.868;25.320;2024-03-23T15:16:04;3.85;;;1.42;;
20038;SDS011;21737;42.868;25.320;2024-03-23T15:18:32;3.30;;;1.30;;
20038;SDS011;21737;42.868;25.320;2024-03-23T15:21:00;3.38;;;1.50;;
20038;SDS011;21737;42.868;25.320;2024-03-23T15:23:33;3.13;;;1.30;;
20038;SDS011;21737;42.868;25.320;2024-03-23T15:26:02;2.70;;;1.30;;
20038;SDS011;21737;42.868;25.320;2024-03-23T15:28:29;2.88;;;1.77;;
20038;SDS011;21737;42.868;25.320;2024-03-23T15:31:14;3.25;;;1.58;;
20038;SDS011;21737;42.868;25.320;2024-03-23T15:33:40;2.17;;;1.20;;
20038;SDS011;21737;42.868;25.320;2024-03-23T15:36:14;3.92;;;1.73;;
20038;SDS011;21737;42.868;25.320;2024-03-23T15:38:41;3.83;;;1.48;;
20038;SDS011;21737;42.868;25.320;2024-03-23T15:41:08;6.53;;;2.17;;
20038;SDS011;21737;42.868;25.320;2024-03-23T15:43:35;3.67;;;1.90;;
20038;SDS011;21737;42.868;25.320;2024-03-23T15:46:03;3.60;;;1.77;;
20038;SDS011;21737;42.868;25.320;2024-03-23T15:48:31;3.28;;;1.67;;
20038;SDS011;21737;42.868;25.320;2024-03-23T15:51:01;3.38;;;1.50;;
20038;SDS011;21737;42.868;25.320;2024-03-23T15:53:36;3.00;;;1.80;;
20038;SDS011;21737;42.868;25.320;2024-03-23T15:56:03;6.22;;;1.92;;
20038;SDS011;21737;42.868;25.320;2024-03-23T15:58:32;4.40;;;1.83;;
20038;SDS011;21737;42.868;25.320;2024-03-23T16:01:00;4.88;;;1.55;;
20038;SDS011;21737;42.868;25.320;2024-03-23T16:03:32;3.63;;;1.60;;
20038;SDS011;21737;42.868;25.320;2024-03-23T16:06:08;3.53;;;1.92;;
20038;SDS011;21737;42.868;25.320;2024-03-23T16:08:34;3.28;;;2.00;;
20038;SDS011;21737;42.868;25.320;2024-03-23T16:11:04;4.30;;;1.90;;
20038;SDS011;21737;42.868;25.320;2024-03-23T16:13:40;5.30;;;2.35;;
20038;SDS011;21737;42.868;25.320;2024-03-23T16:16:09;6.30;;;2.60;;
20038;SDS011;21737;42.868;25.320;2024-03-23T16:18:36;5.07;;;2.22;;